deformed-offering
Saratoga-Weather Station Historical Data
 
Daily Summary for July 27, 2021 Units:  English    Metric   Both
Daily Weekly Monthly Yearly
  Current: High: Low: Average:
Temperature: 73.6 °F 88.9 °F 63.2 °F 74 °F
Dew Point: 58.1 °F 59.2 °F 49.8 °F 57.2 °F
Humidity: 58.3% 83% 27.2% 60%
Wind Speed: 0.1mph 4.3mph 0mph 1.4mph
Wind Gust: 3mph 12mph - -
WindNNE - - ENE
Pressure: 29.97 in 29.98 in 29.90 in -
Precipitation: 0.00 in      
 
 
Tabular Data for July 27, 2021
Time Temperature Dew Point Pressure Wind Wind Speed Wind Gust Humidity Rainfall Rate (Hourly) solar
00:04 65.5 °F 57.5 °F 29.93 in Calm     75.4% 0.00 in 0 W/m2
00:09 65.4 °F 57.6 °F 29.92 in Calm     76% 0.00 in 0 W/m2
00:14 65.3 °F 57.5 °F 29.92 in Calm     76% 0.00 in 0 W/m2
00:19 65.2 °F 57.4 °F 29.92 in Calm     76% 0.00 in 0 W/m2
00:24 65.1 °F 57.3 °F 29.92 in NNE 0.3 mph 5 mph 76% 0.00 in 0 W/m2
00:29 65 °F 57.2 °F 29.93 in NNE 0.9 mph 5 mph 76% 0.00 in 0 W/m2
00:34 64.8 °F 57.1 °F 29.93 in NNE 1.3 mph 6 mph 76% 0.00 in 0 W/m2
00:39 64.8 °F 57.3 °F 29.93 in North 0.7 mph 6 mph 76.8% 0.00 in 0 W/m2
00:44 64.7 °F 57.3 °F 29.93 in Calm   3 mph 77% 0.00 in 0 W/m2
00:49 64.6 °F 57.5 °F 29.93 in Calm   1.2 mph 77.7% 0.00 in 0 W/m2
00:54 64.5 °F 57.4 °F 29.93 in North 0.2 mph 2 mph 77.8% 0.00 in 0 W/m2
00:59 64.4 °F 57 °F 29.92 in North 0.2 mph 2.3 mph 77% 0.00 in 0 W/m2
01:04 64.3 °F 56.9 °F 29.92 in North 0.2 mph 2.3 mph 77% 0.00 in 0 W/m2
01:09 64.3 °F 57 °F 29.92 in Calm   2 mph 77.4% 0.00 in 0 W/m2
01:14 64.2 °F 57.2 °F 29.92 in Calm   1 mph 78% 0.00 in 0 W/m2
01:19 64.2 °F 57.2 °F 29.92 in Calm   1.2 mph 78% 0.00 in 0 W/m2
01:24 64.2 °F 57.2 °F 29.92 in Calm   1 mph 78% 0.00 in 0 W/m2
01:29 64.1 °F 57.1 °F 29.92 in Calm     78% 0.00 in 0 W/m2
01:34 64 °F 57.1 °F 29.92 in Calm     78.3% 0.00 in 0 W/m2
01:39 64 °F 57 °F 29.91 in Calm     78% 0.00 in 0 W/m2
01:44 63.9 °F 57 °F 29.91 in Calm     78.3% 0.00 in 0 W/m2
01:49 63.9 °F 57.2 °F 29.91 in North 0.6 mph 3.5 mph 78.6% 0.00 in 0 W/m2
01:54 63.9 °F 57.3 °F 29.91 in North 0.4 mph 3.5 mph 79% 0.00 in 0 W/m2
01:59 63.7 °F 57.1 °F 29.91 in Calm   3 mph 79% 0.00 in 0 W/m2
02:04 63.7 °F 57.1 °F 29.91 in North 0.1 mph 2.3 mph 79% 0.00 in 0 W/m2
02:09 63.7 °F 57.1 °F 29.91 in Calm   2 mph 79% 0.00 in 0 W/m2
02:14 63.6 °F 57 °F 29.91 in Calm     79% 0.00 in 0 W/m2
02:19 63.5 °F 56.9 °F 29.91 in Calm     79% 0.00 in 0 W/m2
02:24 63.5 °F 56.9 °F 29.90 in North 0.3 mph 2.3 mph 79% 0.00 in 0 W/m2
02:29 63.5 °F 56.9 °F 29.91 in North 0.1 mph 2.3 mph 79% 0.00 in 0 W/m2
02:34 63.4 °F 56.8 °F 29.91 in Calm   1 mph 79% 0.00 in 0 W/m2
02:39 63.4 °F 56.9 °F 29.91 in Calm     79.4% 0.00 in 0 W/m2
02:44 63.4 °F 57.1 °F 29.91 in Calm     80% 0.00 in 0 W/m2
02:49 63.4 °F 57.1 °F 29.91 in Calm     80% 0.00 in 0 W/m2
02:54 63.4 °F 57.1 °F 29.92 in Calm     80% 0.00 in 0 W/m2
02:59 63.4 °F 57.3 °F 29.92 in Calm     80.6% 0.00 in 0 W/m2
03:04 63.4 °F 57.5 °F 29.92 in Calm     81% 0.00 in 0 W/m2
03:09 63.3 °F 57.1 °F 29.92 in Calm     80.1% 0.00 in 0 W/m2
03:14 63.2 °F 57.2 °F 29.92 in Calm     80.7% 0.00 in 0 W/m2
03:19 63.2 °F 57.3 °F 29.92 in Calm     81% 0.00 in 0 W/m2
03:24 63.2 °F 57.3 °F 29.92 in Calm     81% 0.00 in 0 W/m2
03:29 63.2 °F 57.3 °F 29.92 in Calm     81% 0.00 in 0 W/m2
03:34 63.2 °F 57.3 °F 29.93 in Calm     81% 0.00 in 0 W/m2
03:39 63.2 °F 57.3 °F 29.93 in Calm     81% 0.00 in 0 W/m2
03:44 63.2 °F 57.3 °F 29.93 in Calm     81% 0.00 in 0 W/m2
03:49 63.2 °F 57.3 °F 29.93 in Calm     81% 0.00 in 0 W/m2
03:54 63.2 °F 57.3 °F 29.93 in Calm     81% 0.00 in 0 W/m2
03:59 63.2 °F 57.3 °F 29.93 in Calm     81% 0.00 in 0 W/m2
04:04 63.2 °F 57.3 °F 29.93 in Calm     81% 0.00 in 0 W/m2
04:09 63.2 °F 57.3 °F 29.93 in Calm     81% 0.00 in 0 W/m2
04:14 63.2 °F 57.3 °F 29.93 in Calm     81% 0.00 in 0 W/m2
04:19 63.2 °F 57.3 °F 29.93 in Calm     81% 0.00 in 0 W/m2
04:24 63.2 °F 57.3 °F 29.93 in Calm     81% 0.00 in 0 W/m2
04:29 63.2 °F 57.5 °F 29.93 in Calm     81.6% 0.00 in 0 W/m2
04:34 63.2 °F 57.6 °F 29.93 in Calm     81.8% 0.00 in 0 W/m2
04:39 63.2 °F 57.6 °F 29.93 in Calm     82% 0.00 in 0 W/m2
04:44 63.2 °F 57.6 °F 29.93 in Calm     82% 0.00 in 0 W/m2
04:49 63.2 °F 57.6 °F 29.93 in Calm     82% 0.00 in 0 W/m2
04:54 63.2 °F 57.6 °F 29.93 in Calm     81.9% 0.00 in 0 W/m2
04:59 63.2 °F 57.3 °F 29.93 in Calm     81% 0.00 in 0 W/m2
05:04 63.2 °F 57.3 °F 29.93 in Calm     81% 0.00 in 0 W/m2
05:09 63.2 °F 57.3 °F 29.93 in Calm     81% 0.00 in 0 W/m2
05:14 63.2 °F 57.5 °F 29.93 in Calm     81.6% 0.00 in 0 W/m2
05:19 63.2 °F 57.6 °F 29.93 in Calm     82% 0.00 in 0 W/m2
05:24 63.3 °F 57.7 °F 29.93 in Calm     82% 0.00 in 0 W/m2
05:29 63.4 °F 57.8 °F 29.93 in Calm     82% 0.00 in 0 W/m2
05:34 63.4 °F 57.8 °F 29.93 in Calm     82% 0.00 in 0 W/m2
05:39 63.4 °F 57.8 °F 29.93 in Calm     82% 0.00 in 0 W/m2
05:44 63.4 °F 57.8 °F 29.93 in Calm     82% 0.00 in 0 W/m2
05:49 63.4 °F 57.8 °F 29.93 in Calm     82% 0.00 in 0 W/m2
05:54 63.4 °F 57.8 °F 29.93 in Calm     82% 0.00 in 0 W/m2
05:59 63.4 °F 57.8 °F 29.93 in Calm     82% 0.00 in 0 W/m2
06:04 63.4 °F 57.8 °F 29.93 in Calm     82% 0.00 in 0 W/m2
06:09 63.4 °F 57.8 °F 29.94 in Calm     82% 0.00 in 0 W/m2
06:14 63.4 °F 57.8 °F 29.94 in Calm     82% 0.00 in 0 W/m2
06:19 63.4 °F 57.8 °F 29.94 in Calm     82% 0.00 in 0 W/m2
06:24 63.4 °F 57.8 °F 29.94 in Calm     82% 0.00 in 0 W/m2
06:29 63.4 °F 57.8 °F 29.94 in Calm     82% 0.00 in 5 W/m2
06:34 63.4 °F 57.8 °F 29.94 in Calm     82% 0.00 in 5 W/m2
06:35 63.4 °F 57.8 °F 29.94 in Calm     82% 0.00 in 5 W/m2
06:49 63.4 °F 58.1 °F 29.94 in Calm     83% 0.00 in 12 W/m2
06:54 63.4 °F 58.1 °F 29.94 in Calm     82.8% 0.00 in 14 W/m2
06:59 63.4 °F 57.9 °F 29.95 in Calm     82.1% 0.00 in 16 W/m2
07:04 63.5 °F 57.9 °F 29.95 in Calm     82.1% 0.00 in 19 W/m2
07:09 63.5 °F 57.9 °F 29.95 in Calm     82.1% 0.00 in 28 W/m2
07:14 63.5 °F 58.1 °F 29.95 in Calm     82.8% 0.00 in 33 W/m2
07:19 63.5 °F 58.2 °F 29.95 in Calm     83% 0.00 in 39 W/m2
07:24 63.6 °F 58.3 °F 29.95 in Calm     83% 0.00 in 46 W/m2
07:29 63.7 °F 58.4 °F 29.95 in Calm     83% 0.00 in 53 W/m2
07:34 63.8 °F 58.5 °F 29.95 in Calm     83% 0.00 in 69 W/m2
07:39 63.9 °F 58.6 °F 29.95 in Calm     83% 0.00 in 76 W/m2
07:44 63.9 °F 58.5 °F 29.95 in Calm     82.6% 0.00 in 86 W/m2
07:49 64 °F 58.4 °F 29.96 in Calm     82% 0.00 in 99 W/m2
07:54 64 °F 58.4 °F 29.96 in Calm     82% 0.00 in 114 W/m2
07:59 64 °F 58.4 °F 29.96 in Calm     82% 0.00 in 127 W/m2
08:04 64.1 °F 58.5 °F 29.96 in Calm     82% 0.00 in 144 W/m2
08:09 64.2 °F 58.6 °F 29.96 in Calm     82% 0.00 in 158 W/m2
08:14 64.3 °F 58.5 °F 29.97 in Calm     81.6% 0.00 in 171 W/m2
08:19 64.4 °F 58.4 °F 29.97 in Calm     81% 0.00 in 183 W/m2
08:24 64.5 °F 58.5 °F 29.97 in Calm     81% 0.00 in 188 W/m2
08:29 64.7 °F 58.6 °F 29.97 in Calm     80.7% 0.00 in 230 W/m2
08:34 64.9 °F 58.7 °F 29.97 in North 0.1 mph 2 mph 80.3% 0.00 in 243 W/m2
08:39 65.1 °F 58.7 °F 29.97 in North 0.2 mph 2.3 mph 79.7% 0.00 in 273 W/m2
08:44 65.3 °F 58.6 °F 29.97 in North 0.4 mph 2.3 mph 79% 0.00 in 329 W/m2
08:49 65.5 °F 58.8 °F 29.98 in North 0.6 mph 3.5 mph 78.7% 0.00 in 274 W/m2
08:54 65.8 °F 58.7 °F 29.98 in North 0.7 mph 3.5 mph 78% 0.00 in 225 W/m2
08:59 66.2 °F 59.1 °F 29.98 in North 0.1 mph 3 mph 78% 0.00 in 283 W/m2
09:04 66.4 °F 59 °F 29.98 in North 0.2 mph 2.3 mph 77% 0.00 in 582 W/m2
09:09 66.7 °F 58.9 °F 29.98 in North 0.5 mph 2.3 mph 76% 0.00 in 582 W/m2
09:14 67.1 °F 58.8 °F 29.98 in North 1.4 mph 3.5 mph 74.8% 0.00 in 528 W/m2
09:19 67.4 °F 58.6 °F 29.98 in North 0.4 mph 3.5 mph 73.4% 0.00 in 521 W/m2
09:24 67.8 °F 58.8 °F 29.98 in North 0.9 mph 3.5 mph 73% 0.00 in 528 W/m2
09:29 68.1 °F 58.7 °F 29.98 in North 1.1 mph 3.5 mph 72% 0.00 in 540 W/m2
09:34 68.5 °F 58.9 °F 29.98 in North 1.3 mph 4 mph 71.5% 0.00 in 552 W/m2
09:39 68.8 °F 58.7 °F 29.98 in North 1.3 mph 4 mph 70.2% 0.00 in 565 W/m2
09:44 69.2 °F 58.4 °F 29.98 in North 1.5 mph 3.5 mph 68.5% 0.00 in 579 W/m2
09:49 69.6 °F 58.2 °F 29.98 in North 0.4 mph 3 mph 67% 0.00 in 593 W/m2
09:54 69.9 °F 58.2 °F 29.98 in North 1.6 mph 5 mph 66.5% 0.00 in 607 W/m2
09:59 70.3 °F 58.1 °F 29.98 in NNE 1.3 mph 5 mph 65% 0.00 in 618 W/m2
10:04 70.7 °F 58.1 °F 29.98 in NNE 1.1 mph 5 mph 64.3% 0.00 in 632 W/m2
10:09 71 °F 58.3 °F 29.98 in NNE 1.4 mph 3.5 mph 64.3% 0.00 in 646 W/m2
10:14 71.4 °F 58 °F 29.97 in North 1.8 mph 4 mph 62.8% 0.00 in 662 W/m2
10:19 71.8 °F 57.8 °F 29.97 in North 1.6 mph 6 mph 61.2% 0.00 in 677 W/m2
10:24 72.3 °F 57.3 °F 29.97 in North 1.2 mph 6 mph 59.3% 0.00 in 690 W/m2
10:29 72.7 °F 58 °F 29.97 in North 1.6 mph 6 mph 59.9% 0.00 in 716 W/m2
10:34 73.1 °F 57.7 °F 29.97 in NNE 1.3 mph 6 mph 58.5% 0.00 in 732 W/m2
10:39 73.5 °F 58.4 °F 29.97 in NE 2.5 mph 7 mph 59.2% 0.00 in 713 W/m2
10:44 73.9 °F 58.3 °F 29.98 in NE 2.9 mph 7 mph 58.2% 0.00 in 720 W/m2
10:49 74.3 °F 58.1 °F 29.98 in NE 2.1 mph 7 mph 56.9% 0.00 in 728 W/m2
10:54 74.7 °F 57.9 °F 29.97 in ENE 1.9 mph 5 mph 55.8% 0.00 in 739 W/m2
10:59 75 °F 57.5 °F 29.97 in NNE 1.7 mph 5 mph 54.6% 0.00 in 748 W/m2
11:04 75.4 °F 57.1 °F 29.97 in North 0.6 mph 5 mph 53% 0.00 in 758 W/m2
11:09 75.8 °F 57 °F 29.97 in North 1.8 mph 5 mph 52.1% 0.00 in 767 W/m2
11:14 76.2 °F 58.1 °F 29.97 in NNE 1.9 mph 5 mph 53.5% 0.00 in 778 W/m2
11:19 76.6 °F 58.6 °F 29.97 in NE 2.8 mph 7 mph 53.8% 0.00 in 785 W/m2
11:24 76.9 °F 58.7 °F 29.97 in NNE 1.4 mph 7 mph 53.4% 0.00 in 794 W/m2
11:29 77.4 °F 57.8 °F 29.97 in NNW 2.1 mph 6 mph 50.9% 0.00 in 801 W/m2
11:34 77.8 °F 57.4 °F 29.97 in North 2 mph 6 mph 49.5% 0.00 in 809 W/m2
11:39 78.3 °F 57.5 °F 29.97 in NW 1.2 mph 6 mph 48.9% 0.00 in 816 W/m2
11:44 78.7 °F 58 °F 29.97 in NNE 2.4 mph 7 mph 49.2% 0.00 in 827 W/m2
11:49 79.2 °F 58.2 °F 29.97 in NE 3.1 mph 7 mph 48.7% 0.00 in 830 W/m2
11:54 79.6 °F 58.3 °F 29.97 in NNE 1.8 mph 6 mph 48.3% 0.00 in 834 W/m2
11:59 79.9 °F 56.5 °F 29.97 in NNW 2.3 mph 6 mph 44.7% 0.00 in 841 W/m2
12:04 80.4 °F 56.4 °F 29.97 in NNE 2.2 mph 6 mph 43.8% 0.00 in 850 W/m2
12:09 80.9 °F 58.1 °F 29.96 in NE 3 mph 6 mph 45.8% 0.00 in 857 W/m2
12:14 81.2 °F 57.8 °F 29.96 in North 2.9 mph 7 mph 44.9% 0.00 in 878 W/m2
12:19 81.7 °F 57.7 °F 29.96 in NNE 2.7 mph 7 mph 44.1% 0.00 in 896 W/m2
12:24 82.2 °F 57.2 °F 29.96 in North 2.5 mph 6 mph 42.6% 0.00 in 915 W/m2
12:29 82.7 °F 55.8 °F 29.95 in North 3.7 mph 8.1 mph 39.9% 0.00 in 1017 W/m2
12:34 83.2 °F 57.1 °F 29.95 in North 3 mph 8 mph 41.1% 0.00 in 1057 W/m2
12:39 83.5 °F 58.4 °F 29.95 in NNE 2.9 mph 7 mph 42.6% 0.00 in 1057 W/m2
12:44 83.7 °F 55.2 °F 29.95 in North 3.2 mph 7 mph 37.8% 0.00 in 1057 W/m2
12:49 83.9 °F 52.6 °F 29.95 in North 3.3 mph 7 mph 34.1% 0.00 in 1057 W/m2
12:54 84.1 °F 52.7 °F 29.95 in NNE 3.4 mph 8.1 mph 34% 0.00 in 1057 W/m2
12:59 84.4 °F 52.1 °F 29.95 in North 2.2 mph 8 mph 32.9% 0.00 in 445 W/m2
13:04 84.7 °F 52.6 °F 29.95 in NNE 3.5 mph 6 mph 33.3% 0.00 in 445 W/m2
13:09 84.9 °F 53 °F 29.95 in NNW 3.2 mph 8.1 mph 33.6% 0.00 in 445 W/m2
13:14 85.2 °F 53.4 °F 29.95 in North 3 mph 8.1 mph 33.6% 0.00 in 970 W/m2
13:19 85.4 °F 53.7 °F 29.95 in NNW 3.8 mph 8.1 mph 33.8% 0.00 in 1013 W/m2
13:24 85.7 °F 53.5 °F 29.95 in North 2.2 mph 6 mph 33.3% 0.00 in 1013 W/m2
13:29 85.9 °F 52.6 °F 29.95 in North 2.9 mph 7 mph 31.9% 0.00 in 1013 W/m2
13:34 86.1 °F 51.4 °F 29.95 in NNE 3.3 mph 8.1 mph 30.5% 0.00 in 954 W/m2
13:39 86.4 °F 51.4 °F 29.95 in NNW 2.5 mph 8 mph 30.2% 0.00 in 911 W/m2
13:44 86.6 °F 51 °F 29.95 in North 2.9 mph 8.1 mph 29.5% 0.00 in 899 W/m2
13:49 86.9 °F 51.6 °F 29.94 in NNE 3.4 mph 8.1 mph 29.9% 0.00 in 896 W/m2
13:54 87.3 °F 50.9 °F 29.94 in NNE 2.3 mph 8 mph 28.8% 0.00 in 896 W/m2
13:59 87.5 °F 50.6 °F 29.94 in North 3.6 mph 10.4 mph 28.3% 0.00 in 927 W/m2
14:04 87.8 °F 49.8 °F 29.94 in NNE 3.5 mph 10 mph 27.2% 0.00 in 822 W/m2
14:09 88 °F 50.1 °F 29.94 in North 3 mph 7 mph 27.3% 0.00 in 822 W/m2
14:14 88.1 °F 51.1 °F 29.94 in NNE 3.1 mph 8.1 mph 28.2% 0.00 in 945 W/m2
14:19 88.2 °F 51.9 °F 29.94 in NNE 4 mph 10 mph 29% 0.00 in 899 W/m2
14:24 88.4 °F 52.8 °F 29.94 in North 3.8 mph 10.4 mph 29.7% 0.00 in 869 W/m2
14:29 88.6 °F 53.6 °F 29.94 in NNE 3.7 mph 7 mph 30.5% 0.00 in 853 W/m2
14:34 88.6 °F 54 °F 29.94 in North 3.5 mph 7 mph 30.9% 0.00 in 843 W/m2
14:39 88.7 °F 54.6 °F 29.93 in North 3 mph 7 mph 31.4% 0.00 in 852 W/m2
14:44 88.8 °F 55.6 °F 29.93 in NNE 3.5 mph 8.1 mph 32.5% 0.00 in 834 W/m2
14:49 88.8 °F 55.8 °F 29.93 in NNE 3.9 mph 11.5 mph 32.9% 0.00 in 813 W/m2
14:54 88.8 °F 56.9 °F 29.93 in NNE 3.2 mph 12 mph 34.1% 0.00 in 804 W/m2
14:59 88.9 °F 57.8 °F 29.93 in North 3.6 mph 7 mph 35.1% 0.00 in 792 W/m2
15:04 88.9 °F 57.8 °F 29.93 in NNE 3.6 mph 11.5 mph 35.1% 0.00 in 783 W/m2
15:09 88.9 °F 58.5 °F 29.93 in NNE 3.7 mph 12 mph 36% 0.00 in 776 W/m2
15:14 88.8 °F 58.1 °F 29.93 in NNE 3.7 mph 8.1 mph 35.7% 0.00 in 765 W/m2
15:19 88.8 °F 58.3 °F 29.93 in North 4.2 mph 8 mph 35.9% 0.00 in 758 W/m2
15:24 88.8 °F 58.5 °F 29.93 in NNE 3.1 mph 7 mph 36.1% 0.00 in 750 W/m2
15:29 88.7 °F 58.3 °F 29.93 in NNE 2.6 mph 7 mph 36% 0.00 in 743 W/m2
15:34 88.6 °F 58.2 °F 29.93 in North 3.4 mph 6 mph 36% 0.00 in 732 W/m2
15:39 88.6 °F 58.2 °F 29.93 in NE 4.1 mph 10.4 mph 36% 0.00 in 720 W/m2
15:44 88.6 °F 58.9 °F 29.93 in NNE 3 mph 10 mph 36.9% 0.00 in 711 W/m2
15:49 88.4 °F 58.8 °F 29.93 in NNE 4 mph 8.1 mph 37% 0.00 in 700 W/m2
15:54 88.4 °F 59.2 °F 29.92 in NNE 2.8 mph 8.1 mph 37.5% 0.00 in 690 W/m2
15:59 88.2 °F 58.7 °F 29.92 in NNE 2.7 mph 8 mph 37% 0.00 in 679 W/m2
16:04 88.2 °F 58.6 °F 29.92 in NNE 3.5 mph 9.2 mph 37% 0.00 in 665 W/m2
16:09 88.2 °F 58.6 °F 29.92 in North 3.7 mph 9 mph 37% 0.00 in 635 W/m2
16:14 88.1 °F 58.5 °F 29.92 in NNE 3.2 mph 8.1 mph 36.9% 0.00 in 575 W/m2
16:19 88 °F 57.7 °F 29.92 in North 3.1 mph 7 mph 36% 0.00 in 521 W/m2
16:24 88 °F 57.8 °F 29.92 in North 3.2 mph 7 mph 36.1% 0.00 in 491 W/m2
16:29 88 °F 57.8 °F 29.92 in North 3.1 mph 7 mph 36.1% 0.00 in 477 W/m2
16:34 88 °F 57.9 °F 29.92 in NNE 3.5 mph 7 mph 36.3% 0.00 in 487 W/m2
16:39 87.9 °F 58.2 °F 29.92 in North 2.5 mph 7 mph 36.7% 0.00 in 505 W/m2
16:44 87.9 °F 57.8 °F 29.92 in North 3 mph 8.1 mph 36.3% 0.00 in 519 W/m2
16:49 87.9 °F 58.4 °F 29.92 in NNE 2.4 mph 8 mph 37% 0.00 in 531 W/m2
16:54 87.8 °F 58.5 °F 29.92 in NNE 3 mph 6 mph 37.2% 0.00 in 531 W/m2
16:59 87.8 °F 58.9 °F 29.91 in North 2.4 mph 6 mph 37.9% 0.00 in 528 W/m2
17:04 87.7 °F 58.6 °F 29.91 in NNE 3 mph 8.1 mph 37.6% 0.00 in 514 W/m2
17:09 87.6 °F 58.7 °F 29.91 in NE 4 mph 8 mph 37.8% 0.00 in 494 W/m2
17:14 87.4 °F 58.3 °F 29.91 in NNE 4.3 mph 7 mph 37.5% 0.00 in 480 W/m2
17:19 87.2 °F 58.5 °F 29.91 in NNE 2.9 mph 7 mph 37.9% 0.00 in 461 W/m2
17:24 87 °F 58 °F 29.91 in NNE 3.5 mph 7 mph 37.5% 0.00 in 443 W/m2
17:29 86.7 °F 57.4 °F 29.91 in NNE 2.8 mph 7 mph 37.2% 0.00 in 424 W/m2
17:34 86.4 °F 57.5 °F 29.91 in NNE 2.2 mph 6 mph 37.6% 0.00 in 403 W/m2
17:39 86.2 °F 57.6 °F 29.91 in NNE 2.6 mph 6 mph 38% 0.00 in 380 W/m2
17:44 85.9 °F 57.3 °F 29.91 in North 2.5 mph 7 mph 38% 0.00 in 352 W/m2
17:49 85.7 °F 57.7 °F 29.91 in North 2.4 mph 7 mph 38.8% 0.00 in 292 W/m2
17:54 85.5 °F 57.7 °F 29.91 in NNE 3.1 mph 6 mph 39% 0.00 in 290 W/m2
17:59 85.3 °F 57.5 °F 29.91 in NNE 2.4 mph 6 mph 39% 0.00 in 292 W/m2
18:04 85 °F 57.3 °F 29.91 in NE 2.7 mph 6 mph 39% 0.00 in 287 W/m2
18:09 84.8 °F 57.1 °F 29.91 in NE 3.1 mph 8.1 mph 39% 0.00 in 273 W/m2
18:14 84.5 °F 56.8 °F 29.91 in NNE 2.9 mph 8.1 mph 39% 0.00 in 260 W/m2
18:19 84.2 °F 56.5 °F 29.91 in North 2.6 mph 8 mph 39% 0.00 in 246 W/m2
18:24 84 °F 56.4 °F 29.91 in North 2.3 mph 7 mph 39% 0.00 in 236 W/m2
18:29 83.8 °F 56.6 °F 29.92 in NNE 2.6 mph 7 mph 39.6% 0.00 in 223 W/m2
18:34 83.5 °F 56 °F 29.92 in North 2.7 mph 6 mph 39.2% 0.00 in 213 W/m2
18:39 83.2 °F 56.3 °F 29.92 in NNE 2.7 mph 6 mph 40% 0.00 in 202 W/m2
18:44 82.9 °F 56.1 °F 29.92 in North 3 mph 6 mph 40% 0.00 in 188 W/m2
18:49 82.5 °F 55.8 °F 29.92 in North 1.7 mph 6 mph 40.1% 0.00 in 164 W/m2
18:54 82.3 °F 56.2 °F 29.92 in North 1.9 mph 5 mph 41% 0.00 in 143 W/m2
18:59 81.9 °F 56.6 °F 29.92 in North 1.8 mph 5 mph 42% 0.00 in 135 W/m2
19:04 81.6 °F 57 °F 29.92 in North 2.3 mph 7 mph 43% 0.00 in 134 W/m2
19:09 81.3 °F 56.7 °F 29.93 in NNE 2.9 mph 7 mph 43% 0.00 in 104 W/m2
19:14 81 °F 56.8 °F 29.93 in NNE 3 mph 7 mph 43.6% 0.00 in 51 W/m2
19:19 80.7 °F 57 °F 29.93 in North 0.9 mph 6 mph 44.3% 0.00 in 32 W/m2
19:24 80.5 °F 57.2 °F 29.93 in North 2.1 mph 6 mph 45% 0.00 in 30 W/m2
19:29 80.1 °F 57.4 °F 29.93 in North 1.7 mph 6 mph 45.7% 0.00 in 28 W/m2
19:34 79.9 °F 57.7 °F 29.94 in NE 0.4 mph 5 mph 46.8% 0.00 in 25 W/m2
19:39 79.6 °F 57.6 °F 29.94 in NNE 2.5 mph 7 mph 47% 0.00 in 25 W/m2
19:44 79.2 °F 57.2 °F 29.94 in NNE 1.8 mph 7 mph 47% 0.00 in 21 W/m2
19:49 78.9 °F 57 °F 29.94 in NNE 0.9 mph 6 mph 47.1% 0.00 in 19 W/m2
19:54 78.6 °F 57.3 °F 29.94 in NNE 1.1 mph 6 mph 48.1% 0.00 in 18 W/m2
19:59 78.2 °F 57.5 °F 29.94 in North 0.9 mph 5 mph 49% 0.00 in 16 W/m2
20:04 77.9 °F 57.7 °F 29.94 in North 1.6 mph 5 mph 49.9% 0.00 in 12 W/m2
20:09 77.5 °F 57.8 °F 29.95 in Calm   5 mph 50.7% 0.00 in 11 W/m2
20:14 77.2 °F 57.7 °F 29.95 in Calm     51% 0.00 in 7 W/m2
20:19 76.8 °F 57.7 °F 29.95 in North 0.8 mph 3.5 mph 51.7% 0.00 in 5 W/m2
20:24 76.6 °F 57.7 °F 29.95 in North 0.9 mph 3.5 mph 52.3% 0.00 in 0 W/m2
20:29 76.2 °F 57.8 °F 29.96 in North 1.7 mph 5 mph 53% 0.00 in 0 W/m2
20:34 76 °F 58 °F 29.96 in Calm   5 mph 53.8% 0.00 in 0 W/m2
20:39 75.6 °F 57.8 °F 29.96 in NNE 0.8 mph 5 mph 54.1% 0.00 in 0 W/m2
20:44 75.3 °F 58.1 °F 29.96 in NNE 1 mph 5 mph 55.1% 0.00 in 0 W/m2
20:49 75 °F 58.2 °F 29.96 in NNE 1 mph 3.5 mph 56% 0.00 in 0 W/m2
20:54 74.7 °F 58.3 °F 29.97 in NNE 0.3 mph 3 mph 56.7% 0.00 in 0 W/m2
20:59 74.4 °F 58.2 °F 29.97 in NNE 0.4 mph 3.5 mph 57% 0.00 in 0 W/m2
21:04 74.1 °F 58.1 °F 29.97 in NNE 0.2 mph 3.5 mph 57.4% 0.00 in 0 W/m2
21:09 73.9 °F 58.2 °F 29.97 in NNE 0.7 mph 3.5 mph 58% 0.00 in 0 W/m2
21:14 73.6 °F 58.1 °F 29.97 in NNE 0.1 mph 3 mph 58.3% 0.00 in 0 W/m2
Saratoga, California, USA
Compliments of Weather Underground - 2 mb

WU-history PHP script courtesy of Juneau County Weather and modified for WU/TWC API use by Saratoga-weather.org

This script set is available on GitHub.

deformed-offering